Time;durP1;ratioP1;P1;durP2;ratioP2;P2;SDS_P1;SDS_P2;PMS_P1;PMS_P2;Temp;Humidity;BMP_temperature;BMP_pressure;BME280_temperature;BME280_humidity;BME280_pressure;Samples;Min_cycle;Max_cycle;Signal;HPM_P1;HPM_P2
2022/02/27 09:49:14;;;;;;;8.80;4.83;;;;;;;10.52;44.37;102159.16;5093659;27;20551;-64
2022/02/27 09:51:41;;;;;;;9.53;5.83;;;;;;;11.82;41.35;102157.19;5074810;28;20502;-66
2022/02/27 09:54:09;;;;;;;9.03;4.60;;;;;;;12.65;40.15;102161.41;5082638;28;20467;-66
2022/02/27 09:56:35;;;;;;;7.73;5.30;;;;;;;11.43;41.59;102157.97;5078129;28;20531;-66
2022/02/27 09:59:02;;;;;;;7.90;4.17;;;;;;;10.68;42.85;102156.41;5075490;28;20582;-65
2022/02/27 10:01:28;;;;;;;8.10;4.20;;;;;;;10.81;42.95;102155.63;5075775;28;20555;-66
2022/02/27 10:03:56;;;;;;;12.73;4.20;;;;;;;11.30;41.97;102148.03;5076696;28;20464;-65
2022/02/27 10:06:24;;;;;;;7.00;3.67;;;;;;;11.62;41.05;102145.09;5075619;28;20480;-66
2022/02/27 10:08:56;;;;;;;7.47;4.13;;;;;;;11.21;41.23;102153.97;5085073;28;20486;-66
2022/02/27 10:11:22;;;;;;;8.07;4.30;;;;;;;11.73;40.71;102148.88;5081189;28;20512;-63
2022/02/27 10:13:51;;;;;;;10.80;4.33;;;;;;;11.02;41.86;102153.41;5078902;28;21137;-65
2022/02/27 10:16:19;;;;;;;10.37;4.00;;;;;;;9.52;45.09;102156.09;5085281;28;20897;-66
2022/02/27 10:18:47;;;;;;;6.50;4.10;;;;;;;10.01;44.20;102145.22;5075650;28;20551;-66
2022/02/27 10:21:21;;;;;;;5.03;3.27;;;;;;;9.07;46.77;102160.38;5093320;28;20471;-65
2022/02/27 10:23:58;;;;;;;6.97;3.90;;;;;;;10.09;44.75;102151.00;5080543;28;20498;-66
2022/02/27 10:26:25;;;;;;;9.17;4.30;;;;;;;11.14;42.45;102152.66;5096104;28;20470;-66
2022/02/27 10:29:10;;;;;;;6.97;3.50;;;;;;;10.26;44.08;102149.13;5086316;28;20526;-66
2022/02/27 10:31:39;;;;;;;5.50;4.27;;;;;;;10.62;42.18;102138.03;5075747;28;20495;-66
2022/02/27 10:34:13;;;;;;;4.93;3.70;;;;;;;12.27;40.29;102139.94;5080459;28;20558;-65
2022/02/27 10:36:57;;;;;;;10.03;4.20;;;;;;;11.93;40.76;102131.50;5094971;28;20443;-66
2022/02/27 10:39:30;;;;;;;8.23;3.77;;;;;;;12.02;39.83;102128.19;5094595;28;20510;-66
2022/02/27 10:42:06;;;;;;;7.20;3.80;;;;;;;11.99;39.48;102131.94;5092116;28;20563;-64
2022/02/27 10:44:33;;;;;;;7.10;3.40;;;;;;;10.76;41.80;102126.47;5089953;28;20478;-66
2022/02/27 10:47:16;;;;;;;6.23;3.50;;;;;;;11.85;41.19;102134.66;5073791;28;21461;-64
2022/02/27 10:49:44;;;;;;;8.83;3.73;;;;;;;11.54;40.86;102135.81;5083348;28;20461;-67
2022/02/27 10:52:22;;;;;;;6.67;3.10;;;;;;;10.68;42.07;102129.63;5074324;28;20448;-67
2022/02/27 10:54:52;;;;;;;6.33;3.50;;;;;;;11.30;41.17;102117.72;5082624;28;20458;-65
2022/02/27 10:57:34;;;;;;;6.47;4.10;;;;;;;11.34;41.57;102113.03;5075229;28;20440;-66
2022/02/27 11:00:22;;;;;;;6.77;3.33;;;;;;;10.88;41.92;102122.19;5064750;28;20453;-67
2022/02/27 11:02:51;;;;;;;5.90;3.63;;;;;;;11.06;41.35;102123.69;5060563;28;20484;-67
2022/02/27 11:05:20;;;;;;;7.03;3.17;;;;;;;11.27;41.63;102115.25;5065875;28;20835;-67
2022/02/27 11:07:49;;;;;;;8.53;3.83;;;;;;;11.25;41.80;102119.84;5062703;28;20459;-67
2022/02/27 11:10:19;;;;;;;5.23;3.40;;;;;;;10.27;42.24;102113.41;5066139;28;20456;-66
2022/02/27 11:12:46;;;;;;;6.37;3.40;;;;;;;11.30;40.71;102120.38;5071442;28;20453;-67
2022/02/27 11:15:14;;;;;;;8.90;4.90;;;;;;;11.38;42.44;102104.69;5075608;28;20533;-66
2022/02/27 11:17:42;;;;;;;5.07;3.00;;;;;;;10.44;39.28;102102.59;5061598;28;20564;-66
2022/02/27 11:20:10;;;;;;;3.53;2.47;;;;;;;9.87;39.23;102102.44;5042575;28;20464;-67
2022/02/27 11:22:37;;;;;;;7.80;2.93;;;;;;;11.03;39.85;102112.34;5041840;28;20497;-67
2022/02/27 11:25:08;;;;;;;6.53;3.17;;;;;;;10.80;39.46;102092.34;5043974;28;21186;-67
2022/02/27 11:27:37;;;;;;;5.20;2.30;;;;;;;9.97;38.25;102093.78;5059211;28;20471;-66
2022/02/27 11:30:05;;;;;;;3.73;2.10;;;;;;;10.55;38.31;102105.47;5053036;28;20493;-66
2022/02/27 11:32:32;;;;;;;7.50;2.30;;;;;;;8.99;36.57;102110.09;5046319;28;20472;-65
2022/02/27 11:34:58;;;;;;;3.17;2.10;;;;;;;9.10;36.78;102082.84;5050564;28;20508;-64
2022/02/27 11:37:49;;;;;;;3.20;1.77;;;;;;;9.37;37.56;102075.06;5058893;28;20544;-66
2022/02/27 11:40:31;;;;;;;6.83;2.23;;;;;;;9.87;36.79;102081.06;5022547;28;20492;-65
2022/02/27 11:43:00;;;;;;;5.53;2.03;;;;;;;10.02;36.77;102073.97;5041723;28;20782;-67
2022/02/27 11:45:57;;;;;;;3.63;1.70;;;;;;;10.59;35.32;102071.38;5041193;28;20457;-67
2022/02/27 11:48:57;;;;;;;2.50;1.60;;;;;;;10.87;34.32;102083.88;5040363;28;21083;-67
2022/02/27 11:51:48;;;;;;;2.93;1.53;;;;;;;9.92;35.28;102079.84;5030592;28;20446;-66
2022/02/27 11:54:16;;;;;;;4.60;1.90;;;;;;;9.26;37.17;102064.13;5018960;28;20474;-67
2022/02/27 11:56:45;;;;;;;2.27;1.73;;;;;;;9.35;36.55;102064.47;5041473;28;20886;-66
2022/02/27 11:59:13;;;;;;;5.23;2.17;;;;;;;9.88;34.60;102078.31;5038728;28;20521;-67
2022/02/27 12:01:55;;;;;;;2.77;1.80;;;;;;;8.67;36.48;102078.91;5039458;28;20513;-67
2022/02/27 12:04:27;;;;;;;6.57;2.03;;;;;;;8.89;37.59;102066.19;5040744;28;20517;-66
2022/02/27 12:07:02;;;;;;;5.93;2.00;;;;;;;9.15;36.10;102051.38;5041895;28;20498;-67
2022/02/27 12:09:54;;;;;;;4.57;2.30;;;;;;;10.44;36.48;102056.28;5038120;28;20514;-67
2022/02/27 12:12:56;;;;;;;5.67;2.90;;;;;;;9.67;36.68;102051.06;5041431;28;20993;-65
2022/02/27 12:15:29;;;;;;;5.60;3.27;;;;;;;10.04;36.95;102046.19;5005175;28;20549;-66
2022/02/27 12:17:57;;;;;;;6.97;1.80;;;;;;;9.73;36.52;102036.47;5039610;28;20936;-67
2022/02/27 12:20:44;;;;;;;7.23;3.50;;;;;;;10.65;34.64;102030.84;5040024;28;20450;-66
2022/02/27 12:23:13;;;;;;;3.13;1.83;;;;;;;10.90;34.79;102040.88;5041113;28;20482;-68
2022/02/27 12:25:41;;;;;;;5.60;3.30;;;;;;;9.16;34.87;102039.78;5041403;28;20514;-65
2022/02/27 12:28:08;;;;;;;8.77;5.37;;;;;;;9.93;35.13;102036.16;5035094;28;20457;-65
2022/02/27 12:30:36;;;;;;;3.10;1.77;;;;;;;9.61;37.36;102036.25;5021772;28;20493;-66
2022/02/27 12:33:07;;;;;;;5.97;3.20;;;;;;;9.46;36.61;102033.63;5041225;28;20529;-68
2022/02/27 12:35:34;;;;;;;6.50;3.30;;;;;;;9.72;36.61;102010.72;5039918;28;20457;-67
2022/02/27 12:38:05;;;;;;;4.50;2.20;;;;;;;8.89;38.40;102040.41;5040334;28;20509;-68
2022/02/27 12:40:33;;;;;;;4.80;3.20;;;;;;;9.30;39.04;102044.31;5039728;28;20513;-67
2022/02/27 12:43:04;;;;;;;4.43;2.70;;;;;;;9.88;37.95;102034.72;5039364;28;20492;-66
2022/02/27 12:45:31;;;;;;;3.63;2.30;;;;;;;9.12;39.35;102046.25;5039791;28;20533;-66
2022/02/27 12:48:10;;;;;;;5.17;2.60;;;;;;;8.72;39.37;102045.81;5039692;28;20481;-67
2022/02/27 12:50:43;;;;;;;5.60;2.50;;;;;;;8.82;39.50;102033.69;5038805;28;20540;-65
2022/02/27 12:53:10;;;;;;;6.50;2.40;;;;;;;8.92;39.17;102036.69;5040373;28;21023;-67
2022/02/27 12:55:38;;;;;;;4.97;2.40;;;;;;;9.01;39.69;102036.19;5040590;28;20465;-66
2022/02/27 12:58:06;;;;;;;6.83;2.93;;;;;;;9.26;38.96;102043.63;5038836;28;20564;-65
2022/02/27 13:00:33;;;;;;;4.90;2.03;;;;;;;9.33;38.31;102049.50;5039296;28;20454;-66
2022/02/27 13:03:07;;;;;;;4.97;2.13;;;;;;;9.14;39.26;102045.19;5040458;28;20469;-66
2022/02/27 13:05:35;;;;;;;5.80;2.50;;;;;;;9.55;39.93;102035.78;5039501;28;20478;-66
2022/02/27 13:08:03;;;;;;;5.23;2.20;;;;;;;9.17;40.00;102031.69;5039660;28;20485;-66
2022/02/27 13:10:30;;;;;;;6.50;2.60;;;;;;;9.16;40.03;102037.09;5039943;28;20442;-67
2022/02/27 13:12:57;;;;;;;4.00;2.10;;;;;;;9.29;39.30;102030.13;5039015;28;20453;-66
2022/02/27 13:15:23;;;;;;;3.80;2.00;;;;;;;9.11;39.68;102034.69;5039256;28;20453;-67
2022/02/27 13:17:50;;;;;;;4.33;2.30;;;;;;;9.36;39.80;102034.16;5039439;28;20473;-67
2022/02/27 13:20:18;;;;;;;5.07;2.83;;;;;;;9.27;40.76;102033.81;5038864;28;20901;-65
2022/02/27 13:22:50;;;;;;;4.90;2.53;;;;;;;9.28;39.75;102024.88;5039807;28;20480;-67
2022/02/27 13:25:19;;;;;;;5.93;2.67;;;;;;;9.24;39.34;102033.06;5039768;28;20453;-66
2022/02/27 13:27:49;;;;;;;3.17;1.90;;;;;;;9.24;38.36;102035.72;5038145;28;20840;-67
2022/02/27 13:30:18;;;;;;;4.60;2.53;;;;;;;8.89;38.24;102026.19;5036835;28;20465;-67
2022/02/27 13:32:48;;;;;;;3.53;2.50;;;;;;;8.94;37.92;102021.44;5040087;28;20487;-67
2022/02/27 13:35:17;;;;;;;10.73;2.07;;;;;;;9.00;37.18;102032.63;5039406;28;20474;-66
2022/02/27 13:37:53;;;;;;;2.83;2.30;;;;;;;8.83;37.72;102032.72;5036675;28;20521;-67
2022/02/27 13:40:21;;;;;;;2.80;2.37;;;;;;;9.20;37.88;102014.63;5036869;28;20807;-67
2022/02/27 13:42:50;;;;;;;4.47;2.10;;;;;;;8.99;38.35;102014.94;5037859;28;20580;-66
2022/02/27 13:45:32;;;;;;;4.23;2.87;;;;;;;8.99;40.10;102016.72;5038858;28;20458;-67
2022/02/27 13:47:59;;;;;;;5.13;2.77;;;;;;;9.17;41.66;102012.16;5037425;28;20584;-68
2022/02/27 13:50:27;;;;;;;4.47;2.93;;;;;;;9.07;42.34;102027.81;5039675;28;20445;-67
2022/02/27 13:53:00;;;;;;;7.37;3.20;;;;;;;8.92;41.98;102002.00;5039103;28;20529;-67
2022/02/27 13:55:28;;;;;;;7.10;3.00;;;;;;;8.75;42.52;101995.81;5038798;28;20502;-67
2022/02/27 13:58:06;;;;;;;4.97;2.80;;;;;;;8.97;42.94;102003.47;5034917;28;20733;-64
2022/02/27 14:00:34;;;;;;;5.60;2.90;;;;;;;8.98;43.14;102005.19;5038281;28;20454;-67
2022/02/27 14:03:05;;;;;;;7.30;3.30;;;;;;;8.65;42.33;102005.28;5053730;28;20480;-67
2022/02/27 14:05:34;;;;;;;6.70;3.10;;;;;;;8.89;42.34;102004.84;5058424;28;20472;-68
2022/02/27 14:08:02;;;;;;;3.80;2.53;;;;;;;8.70;41.80;102003.22;5037787;28;20460;-67
2022/02/27 14:10:30;;;;;;;5.40;3.23;;;;;;;9.24;41.84;102010.84;5039089;28;20489;-67
2022/02/27 14:13:04;;;;;;;4.70;2.50;;;;;;;9.16;41.56;102005.09;5037121;28;20486;-67
2022/02/27 14:15:34;;;;;;;6.40;3.57;;;;;;;8.76;41.00;101994.88;5038179;28;20453;-67
2022/02/27 14:18:15;;;;;;;9.17;3.03;;;;;;;8.82;41.47;101999.00;5023485;28;20466;-66
2022/02/27 14:20:42;;;;;;;5.30;3.13;;;;;;;8.72;42.04;101988.00;5034932;28;20484;-66
2022/02/27 14:23:11;;;;;;;7.70;2.93;;;;;;;8.95;41.86;101992.03;5036902;28;20442;-68
2022/02/27 14:25:40;;;;;;;9.00;3.37;;;;;;;8.97;41.92;101989.28;5036329;28;20484;-68
2022/02/27 14:28:11;;;;;;;4.50;2.73;;;;;;;8.95;41.32;101984.00;5033388;28;20462;-68
2022/02/27 14:30:39;;;;;;;4.30;3.23;;;;;;;8.93;42.63;101987.75;5035309;28;20481;-64
2022/02/27 14:33:06;;;;;;;5.03;2.50;;;;;;;8.81;43.22;101994.63;5036992;28;20552;-65
2022/02/27 14:35:33;;;;;;;5.40;3.10;;;;;;;8.91;43.15;101986.97;5041306;28;20459;-68
2022/02/27 14:38:00;;;;;;;5.70;3.20;;;;;;;8.54;43.73;101994.34;5039975;28;20461;-67
2022/02/27 14:40:28;;;;;;;7.30;3.33;;;;;;;8.50;44.35;101987.47;5041780;28;20553;-68
2022/02/27 14:42:55;;;;;;;7.40;3.40;;;;;;;8.80;44.25;101985.75;5039683;28;20438;-68
2022/02/27 14:45:21;;;;;;;9.83;3.70;;;;;;;8.86;44.44;101979.22;5039777;28;20463;-66
2022/02/27 14:47:48;;;;;;;6.07;3.83;;;;;;;8.74;45.00;101979.91;5038520;28;20997;-64
2022/02/27 14:50:15;;;;;;;6.47;4.00;;;;;;;8.60;45.42;101988.69;5039371;28;20518;-65
2022/02/27 14:52:42;;;;;;;6.23;4.33;;;;;;;8.59;44.99;101982.50;5040004;28;20468;-66
2022/02/27 14:55:09;;;;;;;11.40;5.13;;;;;;;8.55;45.08;101982.75;5040263;28;20509;-67
2022/02/27 14:57:37;;;;;;;8.50;3.90;;;;;;;8.82;45.13;101986.53;5039464;28;20460;-68
2022/02/27 15:00:06;;;;;;;11.40;4.17;;;;;;;8.63;45.77;101981.38;5038623;28;20489;-69
2022/02/27 15:02:34;;;;;;;6.13;4.40;;;;;;;8.63;46.37;101976.03;5037518;28;20434;-68
2022/02/27 15:05:01;;;;;;;11.40;4.23;;;;;;;8.56;45.88;101979.09;5040091;28;20419;-67
2022/02/27 15:07:29;;;;;;;7.50;3.53;;;;;;;8.39;46.33;101974.69;5039901;28;20465;-68
2022/02/27 15:09:55;;;;;;;6.63;4.50;;;;;;;8.52;46.52;101978.41;5039662;28;20473;-64
2022/02/27 15:12:22;;;;;;;6.03;3.67;;;;;;;8.37;45.93;101976.59;5040142;28;20461;-68
2022/02/27 15:14:50;;;;;;;9.53;4.43;;;;;;;8.10;46.20;101977.97;5050019;28;20946;-67
2022/02/27 15:17:17;;;;;;;6.37;3.80;;;;;;;8.26;46.52;101977.16;5048828;28;20569;-66
2022/02/27 15:19:43;;;;;;;7.03;4.87;;;;;;;8.26;45.86;101980.69;5037690;28;20485;-66
2022/02/27 15:22:10;;;;;;;6.27;3.83;;;;;;;8.45;46.69;101969.03;5053626;28;20493;-68
2022/02/27 15:24:37;;;;;;;7.30;3.60;;;;;;;8.35;45.85;101975.78;5046386;28;21021;-68
2022/02/27 15:27:04;;;;;;;8.57;3.87;;;;;;;8.20;45.60;101977.50;5041388;28;20469;-67
2022/02/27 15:29:31;;;;;;;5.83;4.07;;;;;;;8.14;46.12;101970.69;5039255;28;20468;-66
2022/02/27 15:31:59;;;;;;;8.50;4.13;;;;;;;8.07;45.32;101959.50;5041314;28;20909;-67
2022/02/27 15:34:26;;;;;;;6.60;3.80;;;;;;;8.01;45.32;101965.16;5041872;28;20496;-68
2022/02/27 15:36:53;;;;;;;7.20;3.50;;;;;;;8.16;45.39;101967.94;5039878;28;20446;-64
2022/02/27 15:39:19;;;;;;;4.90;3.60;;;;;;;8.01;44.85;101957.16;5059416;28;20485;-66
2022/02/27 15:41:46;;;;;;;10.20;3.50;;;;;;;8.00;44.24;101957.25;5059683;28;20457;-68
2022/02/27 15:44:13;;;;;;;6.77;4.33;;;;;;;7.95;44.52;101957.50;5053040;28;21113;-67
2022/02/27 15:46:40;;;;;;;5.83;3.80;;;;;;;8.04;43.97;101954.34;5039512;28;20478;-65
2022/02/27 15:49:08;;;;;;;5.80;3.77;;;;;;;7.97;43.91;101952.97;5054667;28;20477;-68
2022/02/27 15:51:37;;;;;;;6.13;2.87;;;;;;;7.90;44.52;101951.56;5041268;28;20462;-64
2022/02/27 15:54:03;;;;;;;7.20;2.80;;;;;;;7.95;44.08;101951.31;5053712;28;20966;-66
2022/02/27 15:56:34;;;;;;;4.37;3.47;;;;;;;7.88;44.13;101950.75;5041793;28;20465;-68
2022/02/27 15:59:04;;;;;;;8.20;3.30;;;;;;;7.97;44.77;101950.28;5052010;28;20501;-67
2022/02/27 16:01:31;;;;;;;9.33;3.63;;;;;;;7.86;44.39;101957.97;5029110;28;21202;-66
2022/02/27 16:03:58;;;;;;;7.23;3.83;;;;;;;7.89;44.71;101957.81;5041864;28;20507;-67
2022/02/27 16:06:26;;;;;;;5.03;3.57;;;;;;;7.83;44.68;101950.16;5053915;28;20448;-66
2022/02/27 16:08:53;;;;;;;4.67;3.43;;;;;;;7.71;44.71;101965.00;5049627;28;20557;-68
2022/02/27 16:11:21;;;;;;;8.80;3.90;;;;;;;7.68;44.89;101957.16;5039329;28;20477;-65
2022/02/27 16:13:48;;;;;;;6.50;3.17;;;;;;;7.63;44.60;101946.72;5043459;28;20456;-67
2022/02/27 16:16:15;;;;;;;7.57;3.23;;;;;;;7.43;44.69;101946.91;5041677;28;20461;-64
2022/02/27 16:18:43;;;;;;;6.40;3.43;;;;;;;7.36;45.61;101943.72;5040377;28;20453;-67
2022/02/27 16:21:10;;;;;;;7.90;3.90;;;;;;;7.38;45.54;101947.16;5040169;28;20488;-65
2022/02/27 16:23:41;;;;;;;7.23;3.90;;;;;;;7.36;46.02;101957.00;5040201;28;20449;-68
2022/02/27 16:26:08;;;;;;;5.33;3.20;;;;;;;7.32;45.84;101947.44;5040531;28;20437;-66
2022/02/27 16:28:34;;;;;;;8.30;4.33;;;;;;;7.14;45.46;101949.25;5043545;28;20484;-66
2022/02/27 16:31:01;;;;;;;6.13;3.73;;;;;;;7.24;45.73;101952.28;5038640;28;20544;-67
2022/02/27 16:33:27;;;;;;;9.70;3.40;;;;;;;7.19;46.18;101956.97;5040496;28;20438;-68
2022/02/27 16:35:54;;;;;;;5.67;3.10;;;;;;;7.06;46.69;101952.28;5044286;28;20830;-66
2022/02/27 16:38:21;;;;;;;4.90;3.50;;;;;;;7.00;47.06;101951.72;5050642;28;20521;-68
2022/02/27 16:40:49;;;;;;;7.67;4.20;;;;;;;6.80;47.25;101940.25;5040034;28;20496;-68
2022/02/27 16:43:16;;;;;;;5.00;4.00;;;;;;;6.89;47.54;101949.56;5043546;28;20449;-67
2022/02/27 16:45:43;;;;;;;5.07;3.60;;;;;;;6.75;47.80;101945.81;5050449;28;20513;-65
2022/02/27 16:48:10;;;;;;;8.63;3.70;;;;;;;6.81;48.56;101951.78;5048362;28;20489;-66
2022/02/27 16:50:36;;;;;;;8.53;6.03;;;;;;;6.63;48.62;101948.19;5058049;28;20509;-67
2022/02/27 16:53:03;;;;;;;33.83;23.00;;;;;;;6.57;48.62;101946.69;5039351;28;20496;-64
2022/02/27 16:55:30;;;;;;;9.00;4.00;;;;;;;6.55;48.89;101940.59;5040749;28;20460;-65
2022/02/27 16:57:58;;;;;;;9.60;5.80;;;;;;;6.43;49.06;101946.50;5039809;28;20509;-64
2022/02/27 17:00:25;;;;;;;7.77;6.70;;;;;;;6.52;49.03;101930.94;5038865;28;20492;-66
2022/02/27 17:02:51;;;;;;;7.60;6.20;;;;;;;6.50;49.52;101948.78;5039139;28;20480;-66
2022/02/27 17:05:18;;;;;;;9.20;7.63;;;;;;;6.40;49.81;101935.03;5052520;28;20664;-67
2022/02/27 17:07:44;;;;;;;5.90;4.30;;;;;;;6.38;50.00;101939.56;5057428;28;20503;-66
2022/02/27 17:10:11;;;;;;;7.93;6.13;;;;;;;6.21;50.10;101950.13;5038497;28;20478;-65
2022/02/27 17:12:38;;;;;;;7.07;5.00;;;;;;;6.23;49.82;101948.25;5039052;28;20509;-66
2022/02/27 17:15:07;;;;;;;8.20;3.50;;;;;;;6.26;50.10;101953.44;5039289;28;20533;-66
2022/02/27 17:17:34;;;;;;;9.67;4.90;;;;;;;6.13;50.36;101965.56;5052101;28;20512;-65
2022/02/27 17:20:00;;;;;;;7.57;6.80;;;;;;;6.07;50.77;101968.47;5041552;28;20565;-68
2022/02/27 17:22:27;;;;;;;8.87;5.00;;;;;;;6.05;50.64;101959.72;5041206;28;20548;-68
2022/02/27 17:24:54;;;;;;;10.90;4.83;;;;;;;5.98;50.52;101970.63;5039698;28;20542;-67
2022/02/27 17:27:20;;;;;;;6.53;4.60;;;;;;;6.03;50.62;101967.75;5040556;28;20480;-65
2022/02/27 17:29:47;;;;;;;13.47;11.07;;;;;;;5.95;51.23;101969.84;5039754;28;20489;-66
2022/02/27 17:32:15;;;;;;;54.00;43.43;;;;;;;5.87;50.97;101970.22;5039671;28;20538;-65
2022/02/27 17:34:42;;;;;;;11.00;6.63;;;;;;;5.82;51.10;101966.91;5040540;28;20440;-62
2022/02/27 17:37:08;;;;;;;13.63;10.70;;;;;;;5.87;51.32;101959.59;5052724;28;21021;-65
2022/02/27 17:39:35;;;;;;;15.10;11.13;;;;;;;5.71;51.21;101963.84;5044868;28;20509;-65
2022/02/27 17:42:01;;;;;;;14.03;6.70;;;;;;;5.73;51.30;101962.84;5052718;28;20522;-65
2022/02/27 17:44:28;;;;;;;9.00;6.27;;;;;;;5.82;50.82;101965.09;5048280;28;20553;-62
2022/02/27 17:46:55;;;;;;;9.33;5.77;;;;;;;5.70;51.35;101959.47;5039352;28;20481;-65
2022/02/27 17:49:23;;;;;;;8.40;5.40;;;;;;;5.65;51.42;101971.13;5041433;28;20476;-63
2022/02/27 17:51:52;;;;;;;6.23;4.83;;;;;;;5.62;51.61;101965.09;5046329;28;20450;-66
2022/02/27 17:54:19;;;;;;;12.03;7.00;;;;;;;5.52;51.85;101964.66;5051645;28;20445;-65
2022/02/27 17:56:45;;;;;;;9.27;5.50;;;;;;;5.54;51.74;101967.22;5040144;28;20461;-66
2022/02/27 17:59:13;;;;;;;16.37;12.40;;;;;;;5.52;51.94;101958.47;5037795;28;20489;-65
2022/02/27 18:01:40;;;;;;;7.80;4.90;;;;;;;5.31;52.14;101969.06;5043318;28;20480;-65
2022/02/27 18:04:07;;;;;;;7.43;5.60;;;;;;;5.45;52.21;101957.84;5048185;28;20505;-64
2022/02/27 18:06:35;;;;;;;6.87;5.60;;;;;;;5.40;51.86;101952.78;5046823;28;20453;-64
2022/02/27 18:09:03;;;;;;;6.23;4.60;;;;;;;5.26;52.48;101956.00;5037247;28;20465;-64
2022/02/27 18:11:29;;;;;;;6.73;4.73;;;;;;;5.31;52.34;101949.63;5030501;28;20488;-64
2022/02/27 18:13:56;;;;;;;10.23;5.37;;;;;;;5.25;52.36;101953.41;5043887;28;20542;-65
2022/02/27 18:16:23;;;;;;;9.40;5.10;;;;;;;5.15;53.19;101958.22;5042687;28;20492;-64
2022/02/27 18:18:50;;;;;;;13.23;9.17;;;;;;;5.18;52.57;101950.16;5049507;28;20464;-63
2022/02/27 18:21:16;;;;;;;7.93;5.00;;;;;;;5.24;52.93;101955.22;5045886;28;20551;-64
2022/02/27 18:23:44;;;;;;;6.20;4.87;;;;;;;5.08;53.28;101957.59;5039941;28;20896;-65
2022/02/27 18:26:11;;;;;;;8.27;5.40;;;;;;;5.02;53.70;101955.22;5043295;28;20456;-63
2022/02/27 18:28:37;;;;;;;10.80;5.20;;;;;;;4.93;53.81;101949.44;5037863;28;20548;-65
2022/02/27 18:31:04;;;;;;;7.13;4.73;;;;;;;4.79;53.95;101948.22;5048581;28;20524;-65
2022/02/27 18:33:32;;;;;;;12.03;6.60;;;;;;;4.82;53.93;101941.91;5063131;28;20449;-65
2022/02/27 18:35:59;;;;;;;6.50;5.90;;;;;;;4.77;54.02;101942.09;5053299;28;20449;-66
2022/02/27 18:38:26;;;;;;;9.37;6.10;;;;;;;4.75;54.20;101946.59;5042740;28;20512;-66
2022/02/27 18:40:54;;;;;;;6.30;4.90;;;;;;;4.68;54.51;101956.56;5042898;28;20580;-65
2022/02/27 18:43:20;;;;;;;8.33;4.90;;;;;;;4.44;54.99;101946.94;5043554;28;20517;-66
2022/02/27 18:45:47;;;;;;;9.23;4.90;;;;;;;4.29;55.44;101954.56;5044158;28;20477;-65
2022/02/27 18:48:13;;;;;;;10.43;5.40;;;;;;;4.21;55.63;101951.31;5047219;28;20929;-66
2022/02/27 18:50:40;;;;;;;7.60;4.90;;;;;;;4.04;56.29;101954.59;5042736;28;20446;-67
2022/02/27 18:53:07;;;;;;;12.90;5.80;;;;;;;4.16;56.35;101953.28;5041143;28;20450;-66
2022/02/27 18:55:34;;;;;;;11.73;5.53;;;;;;;3.80;56.78;101953.69;5042852;28;20453;-67
2022/02/27 18:58:02;;;;;;;19.93;6.80;;;;;;;3.82;57.07;101945.72;5038639;28;20507;-67
2022/02/27 19:00:30;;;;;;;7.93;5.13;;;;;;;4.20;56.43;101951.38;5036312;28;20497;-65
2022/02/27 19:02:57;;;;;;;7.03;5.47;;;;;;;4.35;55.61;101950.81;5042551;28;20461;-65
2022/02/27 19:05:24;;;;;;;23.63;21.13;;;;;;;4.31;55.66;101951.84;5042422;28;20516;-66
2022/02/27 19:07:51;;;;;;;12.97;8.30;;;;;;;4.38;55.41;101955.13;5041648;28;20472;-67
2022/02/27 19:10:21;;;;;;;13.13;11.80;;;;;;;4.40;55.43;101954.13;5048793;28;20463;-66
2022/02/27 19:12:49;;;;;;;9.13;5.73;;;;;;;4.41;56.09;101955.88;5043175;28;20484;-65
2022/02/27 19:15:19;;;;;;;14.53;9.43;;;;;;;4.36;55.63;101956.94;5041015;28;20450;-65
2022/02/27 19:17:48;;;;;;;28.23;19.77;;;;;;;4.42;55.58;101954.09;5043972;28;20464;-64
2022/02/27 19:20:18;;;;;;;7.90;5.47;;;;;;;4.43;55.49;101950.53;5042384;28;20485;-64
2022/02/27 19:22:44;;;;;;;10.07;8.10;;;;;;;4.30;55.56;101948.31;5041531;28;20449;-65
2022/02/27 19:25:12;;;;;;;12.33;6.77;;;;;;;4.25;55.75;101952.06;5042123;28;20485;-64
2022/02/27 19:27:41;;;;;;;15.37;11.53;;;;;;;4.21;55.68;101953.97;5041195;28;20458;-64
2022/02/27 19:30:09;;;;;;;7.23;5.80;;;;;;;4.29;55.77;101959.84;5040051;28;20477;-64
2022/02/27 19:32:38;;;;;;;11.20;8.37;;;;;;;4.20;55.96;101961.97;5039351;28;20471;-64
2022/02/27 19:35:06;;;;;;;8.40;6.77;;;;;;;4.14;56.27;101941.91;5051536;28;20446;-64
2022/02/27 19:37:34;;;;;;;11.40;5.70;;;;;;;4.13;56.17;101948.97;5051307;28;20517;-65
2022/02/27 19:40:00;;;;;;;7.37;5.80;;;;;;;4.05;56.30;101966.06;5044731;28;20456;-64
2022/02/27 19:42:27;;;;;;;9.30;6.00;;;;;;;4.00;56.66;101952.13;5037780;28;20481;-64
2022/02/27 19:44:54;;;;;;;6.67;5.10;;;;;;;4.01;56.04;101957.38;5040191;28;20486;-65
2022/02/27 19:47:22;;;;;;;8.10;6.33;;;;;;;4.05;55.93;101963.41;5039039;28;20492;-65
2022/02/27 19:49:51;;;;;;;6.20;5.20;;;;;;;4.08;56.07;101958.00;5041615;28;20468;-65
2022/02/27 19:52:18;;;;;;;8.30;6.30;;;;;;;3.95;56.32;101962.88;5044075;28;20442;-64
2022/02/27 19:54:45;;;;;;;6.90;5.00;;;;;;;3.98;56.41;101961.91;5061469;28;20467;-65
2022/02/27 19:57:13;;;;;;;7.93;6.40;;;;;;;4.00;56.15;101955.63;5060950;28;20445;-65
2022/02/27 19:59:40;;;;;;;10.17;7.73;;;;;;;3.82;56.73;101959.81;5061616;28;20459;-64
2022/02/27 20:02:06;;;;;;;7.27;5.30;;;;;;;3.87;56.47;101957.00;5060021;28;20484;-65
2022/02/27 20:04:33;;;;;;;6.53;5.73;;;;;;;3.91;56.68;101958.63;5052662;28;20867;-64
2022/02/27 20:07:01;;;;;;;8.83;5.73;;;;;;;3.85;56.88;101958.84;5045769;28;20526;-65
2022/02/27 20:12:12;;;;;;;10.43;6.50;;;;;;;3.86;56.65;101965.88;5041279;28;20440;-65
2022/02/27 20:14:39;;;;;;;7.40;4.90;;;;;;;3.90;56.55;101972.75;5040983;28;20964;-65
2022/02/27 20:17:06;;;;;;;7.13;5.53;;;;;;;3.72;56.91;101971.66;5041646;28;20520;-65
2022/02/27 20:19:33;;;;;;;8.80;6.00;;;;;;;3.75;57.23;101963.63;5040767;28;20958;-65
2022/02/27 20:22:02;;;;;;;8.50;7.00;;;;;;;3.72;57.16;101967.22;5041370;28;20492;-65
2022/02/27 20:24:28;;;;;;;9.40;5.90;;;;;;;3.70;57.35;101969.06;5040528;28;20453;-64
2022/02/27 20:26:56;;;;;;;11.20;6.70;;;;;;;3.69;57.88;101962.03;5046610;28;20512;-64
2022/02/27 20:29:23;;;;;;;9.60;6.10;;;;;;;3.65;57.77;101968.34;5031475;28;20454;-65
2022/02/27 20:31:50;;;;;;;8.93;6.70;;;;;;;3.60;58.05;101967.66;5056759;28;20469;-64
2022/02/27 20:34:17;;;;;;;11.10;6.33;;;;;;;3.68;57.96;101968.25;5040130;28;20469;-65
2022/02/27 20:36:44;;;;;;;8.90;6.80;;;;;;;3.68;57.81;101962.06;5040095;28;20476;-65
2022/02/27 20:39:12;;;;;;;8.07;6.10;;;;;;;3.62;57.89;101963.16;5050879;28;20511;-64
2022/02/27 20:41:39;;;;;;;10.50;7.47;;;;;;;3.57;58.43;101950.09;5040317;28;20499;-65
2022/02/27 20:44:08;;;;;;;13.03;7.00;;;;;;;3.56;58.36;101958.09;5061628;28;20476;-65
2022/02/27 20:46:34;;;;;;;8.30;6.37;;;;;;;3.64;58.43;101961.31;5058895;28;20460;-65
2022/02/27 20:49:01;;;;;;;10.67;6.20;;;;;;;3.58;58.62;101953.63;5045711;28;20507;-65
2022/02/27 20:51:28;;;;;;;10.53;6.67;;;;;;;3.44;59.25;101955.84;5041591;28;20532;-64
2022/02/27 20:53:55;;;;;;;10.93;7.10;;;;;;;3.44;59.31;101950.56;5054091;28;20472;-64
2022/02/27 20:56:23;;;;;;;12.53;7.20;;;;;;;3.50;59.25;101953.00;5060243;28;20546;-65
2022/02/27 20:58:49;;;;;;;12.43;7.10;;;;;;;3.38;59.75;101944.56;5052039;28;20518;-64
2022/02/27 21:01:16;;;;;;;13.13;7.90;;;;;;;3.35;59.79;101950.00;5041003;28;20512;-69
2022/02/27 21:03:44;;;;;;;11.63;7.80;;;;;;;3.36;60.18;101948.19;5045186;28;20510;-65
2022/02/27 21:06:10;;;;;;;12.60;8.20;;;;;;;3.31;60.17;101943.06;5055341;28;20488;-65
2022/02/27 21:08:38;;;;;;;18.37;9.53;;;;;;;3.30;60.57;101938.72;5059127;28;20485;-64
2022/02/27 21:11:04;;;;;;;13.30;8.53;;;;;;;3.28;60.81;101937.00;5046138;28;20996;-64
2022/02/27 21:13:33;;;;;;;12.30;8.33;;;;;;;3.33;60.74;101930.69;5048645;28;20458;-64
2022/02/27 21:15:59;;;;;;;12.70;8.13;;;;;;;3.19;61.27;101933.78;5044536;28;20484;-64
2022/02/27 21:18:26;;;;;;;12.30;8.70;;;;;;;3.12;61.39;101929.59;5057795;28;20487;-64
2022/02/27 21:20:52;;;;;;;14.20;8.60;;;;;;;3.10;61.72;101928.78;5054917;28;20516;-64
2022/02/27 21:23:19;;;;;;;11.70;8.07;;;;;;;3.05;61.87;101930.72;5060721;28;20440;-64
2022/02/27 21:25:46;;;;;;;12.40;8.97;;;;;;;3.10;61.81;101928.78;5045844;28;20466;-64
2022/02/27 21:28:14;;;;;;;11.60;8.13;;;;;;;3.01;62.36;101929.97;5040822;28;20457;-65